Time;durP1;ratioP1;P1;durP2;ratioP2;P2;SDS_P1;SDS_P2;PMS_P1;PMS_P2;Temp;Humidity;BMP_temperature;BMP_pressure;BME280_temperature;BME280_humidity;BME280_pressure;Samples;Min_cycle;Max_cycle;Signal;HPM_P1;HPM_P2
2023/10/15 00:00:18;;;;;;;;;;;6.90;77.90;;;;;;4911381;29;20607;-76
2023/10/15 00:02:46;;;;;;;;;;;6.80;78.30;;;;;;4912283;29;19915;-76
2023/10/15 00:05:12;;;;;;;;;;;6.80;77.80;;;;;;4911899;29;20379;-76
2023/10/15 00:07:38;;;;;;;;;;;6.80;77.90;;;;;;4912022;29;19917;-75
2023/10/15 00:10:09;;;;;;;;;;;6.80;77.90;;;;;;4911966;29;20356;-75
2023/10/15 00:12:34;;;;;;;;;;;6.80;77.90;;;;;;4912042;29;19927;-76
2023/10/15 00:15:00;;;;;;;;;;;6.80;77.90;;;;;;4911846;29;19921;-78
2023/10/15 00:17:27;;;;;;;;;;;6.70;77.90;;;;;;4911877;29;20153;-75
2023/10/15 00:19:53;;;;;;;;;;;6.70;78.00;;;;;;4911869;29;19916;-75
2023/10/15 00:22:19;;;;;;;;;;;6.80;78.10;;;;;;4912024;29;19962;-76
2023/10/15 00:24:44;;;;;;;;;;;6.80;78.50;;;;;;4912067;29;19943;-76
2023/10/15 00:27:10;;;;;;;;;;;6.70;77.90;;;;;;4911924;29;19923;-76
2023/10/15 00:29:35;;;;;;;;;;;6.70;77.90;;;;;;4911862;29;19916;-76
2023/10/15 00:32:03;;;;;;;;;;;6.70;77.80;;;;;;4911956;29;19919;-76
2023/10/15 00:34:30;;;;;;;;;;;6.70;77.80;;;;;;4926415;29;19916;-76
2023/10/15 00:36:55;;;;;;;;;;;6.70;77.70;;;;;;4895015;29;19919;-77
2023/10/15 00:39:21;;;;;;;;;;;6.60;77.80;;;;;;4911807;29;20352;-75
2023/10/15 00:41:47;;;;;;;;;;;6.60;77.80;;;;;;4926584;29;19923;-77
2023/10/15 00:44:14;;;;;;;;;;;6.60;77.80;;;;;;4911991;29;19915;-76
2023/10/15 00:46:40;;;;;;;;;;;6.50;77.70;;;;;;4912038;29;19916;-76
2023/10/15 00:49:10;;;;;;;;;;;6.50;77.70;;;;;;4912844;29;19911;-76
2023/10/15 00:51:42;;;;;;;;;;;6.50;77.70;;;;;;4915206;29;20239;-76
2023/10/15 00:54:15;;;;;;;;;;;6.40;77.70;;;;;;4915445;29;19937;-76
2023/10/15 00:56:41;;;;;;;;;;;6.40;77.70;;;;;;4915448;29;19954;-76
2023/10/15 01:01:38;;;;;;;;;;;6.30;77.80;;;;;;4915261;29;19950;-76
2023/10/15 01:04:06;;;;;;;;;;;6.30;77.90;;;;;;4915371;29;19953;-76
2023/10/15 01:06:35;;;;;;;;;;;6.30;77.90;;;;;;4914982;29;20287;-76
2023/10/15 01:11:44;;;;;;;;;;;6.30;78.00;;;;;;4915036;29;19915;-76
2023/10/15 01:14:25;;;;;;;;;;;6.30;78.00;;;;;;4915364;29;20397;-76
2023/10/15 01:16:51;;;;;;;;;;;6.30;78.00;;;;;;4914875;29;20371;-76
2023/10/15 01:19:18;;;;;;;;;;;6.30;78.00;;;;;;4914888;29;19926;-76
2023/10/15 01:22:02;;;;;;;;;;;6.40;78.00;;;;;;4914980;29;20283;-77
2023/10/15 01:24:32;;;;;;;;;;;6.40;78.00;;;;;;4914931;29;19919;-76
2023/10/15 01:29:27;;;;;;;;;;;6.40;77.90;;;;;;4914912;29;19926;-76
2023/10/15 01:31:58;;;;;;;;;;;6.40;77.80;;;;;;4914807;29;19939;-76
2023/10/15 01:34:27;;;;;;;;;;;6.40;77.80;;;;;;4913338;29;19975;-76
2023/10/15 01:36:59;;;;;;;;;;;6.40;77.70;;;;;;4914627;29;19919;-76
2023/10/15 01:39:38;;;;;;;;;;;6.30;78.10;;;;;;4914940;29;19916;-76
2023/10/15 01:42:06;;;;;;;;;;;6.20;77.50;;;;;;4913579;29;20132;-76
2023/10/15 01:44:47;;;;;;;;;;;6.20;77.60;;;;;;4914525;29;20012;-76
2023/10/15 01:47:13;;;;;;;;;;;6.20;77.60;;;;;;4914545;29;19915;-76
2023/10/15 01:49:38;;;;;;;;;;;6.20;77.60;;;;;;4914396;29;19922;-76
2023/10/15 01:52:12;;;;;;;;;;;6.10;77.60;;;;;;4928834;29;20287;-76
2023/10/15 01:54:44;;;;;;;;;;;6.10;77.70;;;;;;4914177;29;19911;-76
2023/10/15 01:57:14;;;;;;;;;;;6.10;77.70;;;;;;4914257;29;19917;-76
2023/10/15 01:59:45;;;;;;;;;;;6.10;77.80;;;;;;4913428;29;19966;-76
2023/10/15 02:02:17;;;;;;;;;;;6.10;77.80;;;;;;4914256;29;19999;-76
2023/10/15 02:04:46;;;;;;;;;;;6.10;77.90;;;;;;4928704;29;19974;-76
2023/10/15 02:07:19;;;;;;;;;;;6.10;77.90;;;;;;4914261;29;19942;-76
2023/10/15 02:09:48;;;;;;;;;;;6.10;77.80;;;;;;4912809;29;20312;-76
2023/10/15 02:12:17;;;;;;;;;;;6.10;77.70;;;;;;4913957;29;19914;-76
2023/10/15 02:14:44;;;;;;;;;;;6.10;77.70;;;;;;4914069;29;19958;-76
2023/10/15 02:17:13;;;;;;;;;;;6.10;77.60;;;;;;4913854;29;19915;-76
2023/10/15 02:19:41;;;;;;;;;;;6.00;77.50;;;;;;4913893;29;19946;-76
2023/10/15 02:22:11;;;;;;;;;;;6.00;77.50;;;;;;4914063;29;20023;-76
2023/10/15 02:24:37;;;;;;;;;;;6.00;77.60;;;;;;4913780;29;19942;-76
2023/10/15 02:27:06;;;;;;;;;;;5.90;77.60;;;;;;4913704;29;19915;-76
2023/10/15 02:29:35;;;;;;;;;;;5.90;77.60;;;;;;4913634;29;19923;-76
2023/10/15 02:34:45;;;;;;;;;;;5.80;77.70;;;;;;4913986;29;19965;-76
2023/10/15 02:37:11;;;;;;;;;;;5.80;77.70;;;;;;4913543;29;20335;-76
2023/10/15 02:39:39;;;;;;;;;;;5.80;77.70;;;;;;4913476;29;19942;-76
2023/10/15 02:42:05;;;;;;;;;;;5.90;77.80;;;;;;4913371;29;19925;-76
2023/10/15 02:44:33;;;;;;;;;;;5.80;77.80;;;;;;4913568;29;19911;-76
2023/10/15 02:47:19;;;;;;;;;;;5.80;77.80;;;;;;4913400;29;19922;-76
2023/10/15 02:49:53;;;;;;;;;;;5.80;77.80;;;;;;4913527;29;19915;-76
2023/10/15 02:52:20;;;;;;;;;;;5.80;77.80;;;;;;4913248;29;19973;-76
2023/10/15 02:54:46;;;;;;;;;;;5.90;77.90;;;;;;4911881;29;20291;-76
2023/10/15 02:57:15;;;;;;;;;;;5.90;77.80;;;;;;4913238;29;19912;-76
2023/10/15 02:59:53;;;;;;;;;;;5.90;77.80;;;;;;4913246;29;19934;-77
2023/10/15 03:02:19;;;;;;;;;;;5.90;77.90;;;;;;4913030;29;20209;-76
2023/10/15 03:05:12;;;;;;;;;;;5.90;78.00;;;;;;4913097;29;20046;-76
2023/10/15 03:07:33;;;;;;;;;;;5.90;78.00;;;;;;4912969;29;19915;-76
2023/10/15 03:09:59;;;;;;;;;;;5.90;78.00;;;;;;4911624;29;20414;-76
2023/10/15 03:12:25;;;;;;;;;;;5.90;78.00;;;;;;4912612;29;19950;-76
2023/10/15 03:14:54;;;;;;;;;;;5.90;77.90;;;;;;4911612;29;19911;-76
2023/10/15 03:17:25;;;;;;;;;;;5.90;77.90;;;;;;4912771;29;19933;-76
2023/10/15 03:20:10;;;;;;;;;;;5.90;77.90;;;;;;4912755;29;20382;-76
2023/10/15 03:22:37;;;;;;;;;;;5.90;77.70;;;;;;4913157;29;19923;-76
2023/10/15 03:25:13;;;;;;;;;;;5.90;78.20;;;;;;4913003;29;19938;-76
2023/10/15 03:27:39;;;;;;;;;;;5.90;77.80;;;;;;4912733;29;19911;-76
2023/10/15 03:30:05;;;;;;;;;;;5.80;77.80;;;;;;4912579;29;19915;-76
2023/10/15 03:32:31;;;;;;;;;;;5.80;77.80;;;;;;4912664;29;19975;-76
2023/10/15 03:35:05;;;;;;;;;;;5.80;77.80;;;;;;4912944;29;19919;-76
2023/10/15 03:37:31;;;;;;;;;;;5.80;77.70;;;;;;4912865;29;19918;-76
2023/10/15 03:39:57;;;;;;;;;;;5.80;77.60;;;;;;4912444;29;19919;-76
2023/10/15 03:42:26;;;;;;;;;;;5.80;77.60;;;;;;4912609;29;19916;-76
2023/10/15 03:44:59;;;;;;;;;;;5.70;77.70;;;;;;4912341;29;19919;-76
2023/10/15 03:47:25;;;;;;;;;;;5.70;77.80;;;;;;4912449;29;19911;-76
2023/10/15 03:49:51;;;;;;;;;;;5.70;77.90;;;;;;4912379;29;19922;-76
2023/10/15 03:52:20;;;;;;;;;;;5.60;77.90;;;;;;4912213;29;19919;-76
2023/10/15 03:54:47;;;;;;;;;;;5.60;78.40;;;;;;4912616;29;20283;-76
2023/10/15 03:57:17;;;;;;;;;;;5.60;77.90;;;;;;4912171;29;19970;-77
2023/10/15 03:59:52;;;;;;;;;;;5.60;77.80;;;;;;4912035;29;19924;-77
2023/10/15 04:05:14;;;;;;;;;;;5.60;77.80;;;;;;4902375;29;19938;-76
2023/10/15 04:07:49;;;;;;;;;;;5.50;77.80;;;;;;4926837;29;19919;-76
2023/10/15 04:10:22;;;;;;;;;;;5.60;77.90;;;;;;4912405;29;19918;-76
2023/10/15 04:12:48;;;;;;;;;;;5.60;77.90;;;;;;4912137;29;19952;-76
2023/10/15 04:15:17;;;;;;;;;;;5.60;77.80;;;;;;4912154;29;20383;-76
2023/10/15 04:17:45;;;;;;;;;;;5.50;77.70;;;;;;4912129;29;20282;-76
2023/10/15 04:20:13;;;;;;;;;;;5.50;77.80;;;;;;4912087;29;19915;-76
2023/10/15 04:22:44;;;;;;;;;;;5.50;77.80;;;;;;4911098;29;19934;-76
2023/10/15 04:25:23;;;;;;;;;;;5.50;77.90;;;;;;4916107;29;19970;-76
2023/10/15 04:27:49;;;;;;;;;;;5.50;77.90;;;;;;4916067;29;19916;-76
2023/10/15 04:30:14;;;;;;;;;;;5.40;77.90;;;;;;4915819;29;19962;-76
2023/10/15 04:35:11;;;;;;;;;;;5.40;77.80;;;;;;4915797;29;20062;-76
2023/10/15 04:37:39;;;;;;;;;;;5.40;78.00;;;;;;4915746;29;19926;-76
2023/10/15 04:40:05;;;;;;;;;;;5.30;77.80;;;;;;4915699;29;20234;-76
2023/10/15 04:42:40;;;;;;;;;;;5.30;78.00;;;;;;4915644;29;19915;-76
2023/10/15 04:45:20;;;;;;;;;;;5.30;78.00;;;;;;4915672;29;20377;-76
2023/10/15 04:47:59;;;;;;;;;;;5.30;77.90;;;;;;4915730;29;19930;-76
2023/10/15 04:50:28;;;;;;;;;;;5.30;77.90;;;;;;4914298;29;20284;-76
2023/10/15 04:52:54;;;;;;;;;;;5.30;78.00;;;;;;4915497;29;19918;-77
2023/10/15 04:55:20;;;;;;;;;;;5.30;78.00;;;;;;4915493;29;19921;-76
2023/10/15 04:57:46;;;;;;;;;;;5.20;78.00;;;;;;4915260;29;20145;-76
2023/10/15 05:00:12;;;;;;;;;;;5.30;78.00;;;;;;4915332;29;19920;-76
2023/10/15 05:02:39;;;;;;;;;;;5.30;78.00;;;;;;4915353;29;19926;-76
2023/10/15 05:05:05;;;;;;;;;;;5.30;77.90;;;;;;4915259;29;19911;-76
2023/10/15 05:07:31;;;;;;;;;;;5.30;77.90;;;;;;4915194;29;19922;-76
2023/10/15 05:09:58;;;;;;;;;;;5.30;77.80;;;;;;4915091;29;20006;-76
2023/10/15 05:12:23;;;;;;;;;;;5.30;77.80;;;;;;4913663;29;19915;-77
2023/10/15 05:14:49;;;;;;;;;;;5.30;77.80;;;;;;4915035;29;19923;-76
2023/10/15 05:17:15;;;;;;;;;;;5.20;77.80;;;;;;4914896;29;19978;-76
2023/10/15 05:19:42;;;;;;;;;;;5.20;77.80;;;;;;4914788;29;20291;-76
2023/10/15 05:22:08;;;;;;;;;;;5.10;77.80;;;;;;4914976;29;19918;-76
2023/10/15 05:24:34;;;;;;;;;;;5.10;77.80;;;;;;4915057;29;20364;-76
2023/10/15 05:27:00;;;;;;;;;;;5.10;77.90;;;;;;4914891;29;19918;-76
2023/10/15 05:29:25;;;;;;;;;;;5.10;77.80;;;;;;4914862;29;20261;-76
2023/10/15 05:31:53;;;;;;;;;;;5.10;77.80;;;;;;4914814;29;20107;-77
2023/10/15 05:34:19;;;;;;;;;;;5.10;77.70;;;;;;4914271;29;19911;-76
2023/10/15 05:36:45;;;;;;;;;;;5.10;77.60;;;;;;4914580;29;19911;-76
2023/10/15 05:39:10;;;;;;;;;;;5.10;77.70;;;;;;4914644;29;20395;-76
2023/10/15 05:41:37;;;;;;;;;;;5.10;77.60;;;;;;4914508;29;19931;-76
2023/10/15 05:44:03;;;;;;;;;;;5.00;77.60;;;;;;4914613;29;19912;-76
2023/10/15 05:46:29;;;;;;;;;;;5.00;77.60;;;;;;4914476;29;19938;-76
2023/10/15 05:48:55;;;;;;;;;;;5.00;77.60;;;;;;4914489;29;19918;-76
2023/10/15 05:51:20;;;;;;;;;;;5.00;77.60;;;;;;4915315;29;19915;-76
2023/10/15 05:53:46;;;;;;;;;;;5.00;77.60;;;;;;4914248;29;20268;-77
2023/10/15 05:56:12;;;;;;;;;;;5.00;77.60;;;;;;4914221;29;19998;-76
2023/10/15 05:58:37;;;;;;;;;;;5.00;77.60;;;;;;4912937;29;19931;-76
2023/10/15 06:01:03;;;;;;;;;;;4.90;77.60;;;;;;4914272;29;19971;-76
2023/10/15 06:03:29;;;;;;;;;;;5.00;77.60;;;;;;4914229;29;20010;-76
2023/10/15 06:05:58;;;;;;;;;;;5.00;77.60;;;;;;4914220;29;19917;-76
2023/10/15 06:08:23;;;;;;;;;;;5.00;77.70;;;;;;4914018;29;19916;-76
2023/10/15 06:10:49;;;;;;;;;;;4.90;77.60;;;;;;4914126;29;20327;-77
2023/10/15 06:13:15;;;;;;;;;;;4.90;77.80;;;;;;4914139;29;20367;-76
2023/10/15 06:15:40;;;;;;;;;;;4.90;77.70;;;;;;4914001;29;19971;-76
2023/10/15 06:18:06;;;;;;;;;;;4.90;77.70;;;;;;4913735;29;20394;-76
2023/10/15 06:20:33;;;;;;;;;;;4.90;77.80;;;;;;4913950;29;20287;-76
2023/10/15 06:23:03;;;;;;;;;;;4.90;77.80;;;;;;4913764;29;19912;-76
2023/10/15 06:25:29;;;;;;;;;;;4.90;77.90;;;;;;4913990;29;19911;-76
2023/10/15 06:27:55;;;;;;;;;;;4.90;77.90;;;;;;4913978;29;19918;-76
2023/10/15 06:30:21;;;;;;;;;;;4.90;77.90;;;;;;4913648;29;19922;-76
2023/10/15 06:32:50;;;;;;;;;;;4.90;77.90;;;;;;4913732;29;19919;-77
2023/10/15 06:35:19;;;;;;;;;;;4.90;77.90;;;;;;4912592;29;20328;-76
2023/10/15 06:37:48;;;;;;;;;;;4.90;77.80;;;;;;4913680;29;20308;-76
2023/10/15 06:40:16;;;;;;;;;;;4.90;77.80;;;;;;4913357;29;19923;-77
2023/10/15 06:42:43;;;;;;;;;;;4.90;77.80;;;;;;4913252;29;19926;-65
2023/10/15 06:45:09;;;;;;;;;;;4.90;77.80;;;;;;4913380;29;20390;-75
2023/10/15 06:47:35;;;;;;;;;;;4.90;77.80;;;;;;4913310;29;19915;-75
2023/10/15 06:50:05;;;;;;;;;;;4.90;77.70;;;;;;4913170;29;20386;-75
2023/10/15 06:52:35;;;;;;;;;;;4.90;77.80;;;;;;4913125;29;19950;-75
2023/10/15 06:55:01;;;;;;;;;;;4.90;77.80;;;;;;4913340;29;19975;-75
2023/10/15 06:57:27;;;;;;;;;;;4.90;77.80;;;;;;4913044;29;19915;-75
2023/10/15 06:59:52;;;;;;;;;;;4.90;77.90;;;;;;4912709;29;19927;-75
2023/10/15 07:02:18;;;;;;;;;;;4.90;77.80;;;;;;4912901;29;19919;-75
2023/10/15 07:04:44;;;;;;;;;;;4.90;77.80;;;;;;4912869;29;20159;-74
2023/10/15 07:07:09;;;;;;;;;;;4.80;77.80;;;;;;4912770;29;19922;-75
2023/10/15 07:09:36;;;;;;;;;;;4.90;77.80;;;;;;4912806;29;19922;-75
2023/10/15 07:12:02;;;;;;;;;;;4.90;77.80;;;;;;4912992;29;19965;-75
2023/10/15 07:14:29;;;;;;;;;;;4.90;77.90;;;;;;4912878;29;19916;-75
2023/10/15 07:16:56;;;;;;;;;;;4.90;77.90;;;;;;4912713;29;19922;-75
2023/10/15 07:19:21;;;;;;;;;;;4.90;78.00;;;;;;4912640;29;19970;-75
2023/10/15 07:21:47;;;;;;;;;;;4.90;78.10;;;;;;4927336;29;20328;-75
2023/10/15 07:24:13;;;;;;;;;;;4.90;78.20;;;;;;4912598;29;19911;-75
2023/10/15 07:26:40;;;;;;;;;;;5.00;78.30;;;;;;4912578;29;19922;-75
2023/10/15 07:29:06;;;;;;;;;;;5.10;78.40;;;;;;4912746;29;19927;-75
2023/10/15 07:31:32;;;;;;;;;;;5.30;79.20;;;;;;4912311;29;20278;-75
2023/10/15 07:34:00;;;;;;;;;;;5.60;79.00;;;;;;4912470;29;19941;-75
2023/10/15 07:36:26;;;;;;;;;;;5.80;79.00;;;;;;4911192;29;19942;-75
2023/10/15 07:38:51;;;;;;;;;;;6.00;79.10;;;;;;4912312;29;20364;-75
2023/10/15 07:41:17;;;;;;;;;;;6.20;78.90;;;;;;4912495;29;20491;-75
2023/10/15 07:43:42;;;;;;;;;;;6.30;78.50;;;;;;4912049;29;20287;-75
2023/10/15 07:46:08;;;;;;;;;;;6.40;78.70;;;;;;4912550;29;20282;-75
2023/10/15 07:48:33;;;;;;;;;;;6.60;79.00;;;;;;4912234;29;19959;-75
2023/10/15 07:50:59;;;;;;;;;;;6.80;79.30;;;;;;4912134;29;19922;-75
2023/10/15 07:53:25;;;;;;;;;;;7.00;78.90;;;;;;4912117;29;20030;-75
2023/10/15 07:55:50;;;;;;;;;;;7.10;78.90;;;;;;4912029;29;19982;-75
2023/10/15 07:58:16;;;;;;;;;;;7.20;78.80;;;;;;4911360;29;19979;-75
2023/10/15 08:00:41;;;;;;;;;;;7.20;78.80;;;;;;4912053;29;20162;-76
2023/10/15 08:03:07;;;;;;;;;;;7.40;79.30;;;;;;4911766;29;19915;-76
2023/10/15 08:05:33;;;;;;;;;;;7.80;80.10;;;;;;4912026;29;19915;-76
2023/10/15 08:07:59;;;;;;;;;;;8.20;79.40;;;;;;4912154;29;19994;-77
2023/10/15 08:10:31;;;;;;;;;;;8.30;79.20;;;;;;4911989;29;20253;-77
2023/10/15 08:12:58;;;;;;;;;;;8.80;80.20;;;;;;4912112;29;19918;-76
2023/10/15 08:15:24;;;;;;;;;;;9.30;80.30;;;;;;4911728;29;19966;-76
2023/10/15 08:17:50;;;;;;;;;;;9.90;80.40;;;;;;4911797;29;19919;-77
2023/10/15 08:20:16;;;;;;;;;;;10.00;79.20;;;;;;4911760;29;20001;-76
2023/10/15 08:22:44;;;;;;;;;;;9.90;78.50;;;;;;4911864;29;20548;-76
2023/10/15 08:25:21;;;;;;;;;;;9.70;78.30;;;;;;4911751;29;19922;-76
2023/10/15 08:27:47;;;;;;;;;;;9.60;78.70;;;;;;4911763;29;19919;-77
2023/10/15 08:30:13;;;;;;;;;;;10.00;80.80;;;;;;4911421;29;19966;-76
2023/10/15 08:32:44;;;;;;;;;;;10.90;81.70;;;;;;4911443;29;19924;-76
2023/10/15 08:35:16;;;;;;;;;;;11.90;81.60;;;;;;4911876;29;19922;-77
2023/10/15 08:37:42;;;;;;;;;;;12.90;81.80;;;;;;4911699;29;19958;-77
2023/10/15 08:40:07;;;;;;;;;;;13.90;81.90;;;;;;4894309;29;19915;-77
2023/10/15 08:42:37;;;;;;;;;;;14.80;82.00;;;;;;4910015;29;19919;-76
2023/10/15 08:45:05;;;;;;;;;;;15.60;81.50;;;;;;4911533;29;19915;-77
2023/10/15 08:47:34;;;;;;;;;;;16.10;80.50;;;;;;4911331;29;19918;-77
2023/10/15 08:50:00;;;;;;;;;;;16.60;80.30;;;;;;4911097;29;19911;-76
2023/10/15 08:52:26;;;;;;;;;;;17.10;80.80;;;;;;4910991;29;19927;-77
2023/10/15 08:54:53;;;;;;;;;;;17.60;80.80;;;;;;4909983;29;19916;-77
2023/10/15 08:57:19;;;;;;;;;;;18.10;81.00;;;;;;4909575;29;19916;-77
2023/10/15 08:59:45;;;;;;;;;;;18.60;81.30;;;;;;4910585;29;20041;-77
2023/10/15 09:02:10;;;;;;;;;;;19.10;81.50;;;;;;4911370;29;19997;-76
2023/10/15 09:04:36;;;;;;;;;;;19.60;81.60;;;;;;4911431;29;19958;-77
2023/10/15 09:07:02;;;;;;;;;;;20.00;81.80;;;;;;4910849;29;19922;-78
2023/10/15 09:09:34;;;;;;;;;;;20.60;82.20;;;;;;4925888;29;19915;-77
2023/10/15 09:12:00;;;;;;;;;;;21.00;82.00;;;;;;4914792;29;19919;-77
2023/10/15 09:14:45;;;;;;;;;;;21.00;80.80;;;;;;4914888;29;19930;-77
2023/10/15 09:17:11;;;;;;;;;;;21.10;81.30;;;;;;4914252;29;20395;-77
2023/10/15 09:19:37;;;;;;;;;;;21.30;81.80;;;;;;4914423;29;19911;-77
2023/10/15 09:22:04;;;;;;;;;;;21.50;81.90;;;;;;4914287;29;20010;-77
2023/10/15 09:24:30;;;;;;;;;;;21.70;82.00;;;;;;4914262;29;19919;-77
2023/10/15 09:26:57;;;;;;;;;;;21.90;81.30;;;;;;4914183;29;19966;-77
2023/10/15 09:29:22;;;;;;;;;;;21.80;81.00;;;;;;4914317;29;19915;-77
2023/10/15 09:31:50;;;;;;;;;;;21.70;80.50;;;;;;4913925;29;20407;-77
2023/10/15 09:34:16;;;;;;;;;;;21.50;80.30;;;;;;4913659;29;19997;-77
2023/10/15 09:36:41;;;;;;;;;;;21.50;80.80;;;;;;4914027;29;19919;-77
2023/10/15 09:39:13;;;;;;;;;;;21.70;81.20;;;;;;4913916;29;19912;-77
2023/10/15 09:41:41;;;;;;;;;;;21.90;81.40;;;;;;4912344;29;19912;-77
2023/10/15 09:44:08;;;;;;;;;;;22.00;81.10;;;;;;4913651;29;20438;-77
2023/10/15 09:46:34;;;;;;;;;;;22.00;80.70;;;;;;4914088;29;19915;-76
2023/10/15 09:48:59;;;;;;;;;;;21.90;80.60;;;;;;4913835;29;20072;-77
2023/10/15 09:51:26;;;;;;;;;;;22.00;80.70;;;;;;4913835;29;19964;-77
2023/10/15 09:53:52;;;;;;;;;;;22.10;81.00;;;;;;4913763;29;20356;-77
2023/10/15 09:56:19;;;;;;;;;;;22.30;81.50;;;;;;4913468;29;19915;-77
2023/10/15 09:58:44;;;;;;;;;;;22.60;82.00;;;;;;4912735;29;20003;-77
2023/10/15 10:01:25;;;;;;;;;;;23.10;82.40;;;;;;4913047;29;20005;-76
2023/10/15 10:04:04;;;;;;;;;;;23.40;82.70;;;;;;4912295;29;19915;-77
2023/10/15 10:06:32;;;;;;;;;;;23.80;82.60;;;;;;4913350;29;20298;-77
2023/10/15 10:09:10;;;;;;;;;;;24.00;82.70;;;;;;4927609;29;20310;-77
2023/10/15 10:11:35;;;;;;;;;;;24.20;82.70;;;;;;4913298;29;20263;-77
2023/10/15 10:14:07;;;;;;;;;;;24.40;82.50;;;;;;4913124;29;20208;-77
2023/10/15 10:16:33;;;;;;;;;;;24.50;82.60;;;;;;4913632;29;20319;-77
2023/10/15 10:19:00;;;;;;;;;;;24.60;82.10;;;;;;4913037;29;19919;-77
2023/10/15 10:21:29;;;;;;;;;;;24.60;82.30;;;;;;4912971;29;19951;-77
2023/10/15 10:23:58;;;;;;;;;;;24.80;83.30;;;;;;4913134;29;20364;-76
2023/10/15 10:26:26;;;;;;;;;;;25.10;83.60;;;;;;4912710;29;20206;-77
2023/10/15 10:28:54;;;;;;;;;;;25.30;83.60;;;;;;4913054;29;19912;-77
2023/10/15 10:31:21;;;;;;;;;;;25.40;83.70;;;;;;4912790;29;19982;-76
2023/10/15 10:33:49;;;;;;;;;;;25.50;84.20;;;;;;4912362;29;19923;-76
2023/10/15 10:36:15;;;;;;;;;;;25.50;84.00;;;;;;4912816;29;19915;-76
2023/10/15 10:38:45;;;;;;;;;;;25.30;84.20;;;;;;4912586;29;19911;-76
2023/10/15 10:41:14;;;;;;;;;;;25.10;84.30;;;;;;4912318;29;19923;-76
2023/10/15 10:43:43;;;;;;;;;;;25.10;84.50;;;;;;4912394;29;19964;-76
2023/10/15 10:46:21;;;;;;;;;;;25.10;84.50;;;;;;4926521;29;20014;-76
2023/10/15 10:49:17;;;;;;;;;;;25.20;84.70;;;;;;4912454;29;19911;-77
2023/10/15 10:52:02;;;;;;;;;;;25.40;84.60;;;;;;4899469;29;19922;-77
2023/10/15 10:54:28;;;;;;;;;;;25.80;84.60;;;;;;4912353;29;19915;-77
2023/10/15 10:56:55;;;;;;;;;;;26.20;84.40;;;;;;4912314;29;20322;-76
2023/10/15 10:59:21;;;;;;;;;;;26.40;84.60;;;;;;4912033;29;20002;-77
2023/10/15 11:01:46;;;;;;;;;;;26.50;84.60;;;;;;4911713;29;20071;-77
2023/10/15 11:04:15;;;;;;;;;;;26.40;84.90;;;;;;4911731;29;19915;-77
2023/10/15 11:06:42;;;;;;;;;;;26.50;85.60;;;;;;4911652;29;19926;-77
2023/10/15 11:09:21;;;;;;;;;;;26.70;85.40;;;;;;4912233;29;19911;-77
2023/10/15 11:11:47;;;;;;;;;;;26.50;85.50;;;;;;4912119;29;19923;-76
2023/10/15 11:14:18;;;;;;;;;;;26.50;85.90;;;;;;4912131;29;20062;-76
2023/10/15 11:16:43;;;;;;;;;;;26.60;86.10;;;;;;4911658;29;19954;-76
2023/10/15 11:19:16;;;;;;;;;;;26.80;86.10;;;;;;4909453;29;20331;-77
2023/10/15 11:21:42;;;;;;;;;;;27.10;85.90;;;;;;4911218;29;19986;-77
2023/10/15 11:24:09;;;;;;;;;;;27.10;85.60;;;;;;4911216;29;19990;-76
2023/10/15 11:26:35;;;;;;;;;;;27.10;85.70;;;;;;4911299;29;19915;-77
2023/10/15 11:29:01;;;;;;;;;;;27.10;85.70;;;;;;4910957;29;19915;-77
2023/10/15 11:31:27;;;;;;;;;;;27.20;85.60;;;;;;4910829;29;19934;-77
2023/10/15 11:33:54;;;;;;;;;;;27.20;85.60;;;;;;4910221;29;20022;-76
2023/10/15 11:36:21;;;;;;;;;;;27.20;85.70;;;;;;4911463;29;19925;-77
2023/10/15 11:38:47;;;;;;;;;;;27.20;86.00;;;;;;4911158;29;19925;-77
2023/10/15 11:41:12;;;;;;;;;;;27.20;86.10;;;;;;4911085;29;19922;-77
2023/10/15 11:43:39;;;;;;;;;;;27.30;86.10;;;;;;4910986;29;19916;-77
2023/10/15 11:46:08;;;;;;;;;;;27.10;85.50;;;;;;4910668;29;20001;-77
2023/10/15 11:48:34;;;;;;;;;;;26.60;85.90;;;;;;4910916;29;19919;-77
2023/10/15 11:51:00;;;;;;;;;;;26.10;86.20;;;;;;4911086;29;19918;-77
2023/10/15 11:53:25;;;;;;;;;;;26.00;86.30;;;;;;4910909;29;20010;-77
2023/10/15 11:55:53;;;;;;;;;;;25.90;86.40;;;;;;4910644;29;20428;-77
2023/10/15 11:58:19;;;;;;;;;;;25.90;86.50;;;;;;4910567;29;20338;-77
2023/10/15 12:00:48;;;;;;;;;;;25.60;86.30;;;;;;4911039;29;19939;-77
2023/10/15 12:03:16;;;;;;;;;;;25.00;86.40;;;;;;4911112;29;19912;-77
2023/10/15 12:05:42;;;;;;;;;;;24.50;87.50;;;;;;4910964;29;20335;-77
2023/10/15 12:08:08;;;;;;;;;;;24.30;87.30;;;;;;4910612;29;19922;-77
2023/10/15 12:10:34;;;;;;;;;;;24.10;87.10;;;;;;4912505;29;20379;-77
2023/10/15 12:12:59;;;;;;;;;;;24.10;87.20;;;;;;4910955;29;19923;-76
2023/10/15 12:15:30;;;;;;;;;;;24.10;87.20;;;;;;4910698;29;20403;-77
2023/10/15 12:17:56;;;;;;;;;;;24.00;87.00;;;;;;4910536;29;19970;-76
2023/10/15 12:20:23;;;;;;;;;;;23.90;86.40;;;;;;4910742;29;19922;-76
2023/10/15 12:22:49;;;;;;;;;;;23.70;86.40;;;;;;4911097;29;20295;-77
2023/10/15 12:25:14;;;;;;;;;;;23.50;85.70;;;;;;4910667;29;19915;-76
2023/10/15 12:27:40;;;;;;;;;;;23.10;85.20;;;;;;4910681;29;19911;-76
2023/10/15 12:30:07;;;;;;;;;;;22.90;85.60;;;;;;4909839;29;19926;-76
2023/10/15 12:32:33;;;;;;;;;;;22.90;86.20;;;;;;4910635;29;19970;-77
2023/10/15 12:35:10;;;;;;;;;;;22.80;86.30;;;;;;4925028;29;20033;-76
2023/10/15 12:37:36;;;;;;;;;;;22.60;86.80;;;;;;4909654;29;19919;-76
2023/10/15 12:40:08;;;;;;;;;;;22.50;87.20;;;;;;4910428;29;20302;-76
2023/10/15 12:42:37;;;;;;;;;;;22.50;87.30;;;;;;4910424;29;19931;-77
2023/10/15 12:45:02;;;;;;;;;;;22.60;87.20;;;;;;4912621;29;19931;-76
2023/10/15 12:47:28;;;;;;;;;;;22.80;87.20;;;;;;4914116;29;19938;-77
2023/10/15 12:49:53;;;;;;;;;;;22.90;87.00;;;;;;4914116;29;20367;-76
2023/10/15 12:52:19;;;;;;;;;;;23.00;86.60;;;;;;4914156;29;20006;-77
2023/10/15 12:54:46;;;;;;;;;;;23.00;85.90;;;;;;4914217;29;19951;-77
2023/10/15 12:57:12;;;;;;;;;;;22.90;85.60;;;;;;4913836;29;19963;-77
2023/10/15 12:59:37;;;;;;;;;;;22.70;85.40;;;;;;4913600;29;19949;-77
2023/10/15 13:02:03;;;;;;;;;;;22.50;85.30;;;;;;4914274;29;20379;-76
2023/10/15 13:04:29;;;;;;;;;;;22.20;84.80;;;;;;4914060;29;19962;-76
2023/10/15 13:06:55;;;;;;;;;;;22.00;84.80;;;;;;4912748;29;20340;-77
2023/10/15 13:09:25;;;;;;;;;;;21.90;84.60;;;;;;4913783;29;19919;-75
2023/10/15 13:11:52;;;;;;;;;;;21.60;84.70;;;;;;4915344;29;19911;-70
2023/10/15 13:14:19;;;;;;;;;;;21.40;84.70;;;;;;4913696;29;19911;-76
2023/10/15 13:16:46;;;;;;;;;;;21.10;85.20;;;;;;4913967;29;19911;-76
2023/10/15 13:19:13;;;;;;;;;;;21.10;85.50;;;;;;4913824;29;20351;-77
2023/10/15 13:21:39;;;;;;;;;;;20.80;85.80;;;;;;4913841;29;19922;-76
2023/10/15 13:24:05;;;;;;;;;;;20.50;85.30;;;;;;4913593;29;19911;-77
2023/10/15 13:26:32;;;;;;;;;;;20.10;85.50;;;;;;4913574;29;20402;-78
2023/10/15 13:28:57;;;;;;;;;;;20.00;85.80;;;;;;4913628;29;19922;-77
2023/10/15 13:31:23;;;;;;;;;;;19.90;85.50;;;;;;4914076;29;19997;-77
2023/10/15 13:33:49;;;;;;;;;;;19.60;85.60;;;;;;4913467;29;20351;-77
2023/10/15 13:36:14;;;;;;;;;;;19.40;85.80;;;;;;4913197;29;20025;-77
2023/10/15 13:38:41;;;;;;;;;;;19.50;86.10;;;;;;4913296;29;19915;-77
2023/10/15 13:41:08;;;;;;;;;;;19.60;85.80;;;;;;4913584;29;19915;-77
2023/10/15 13:43:35;;;;;;;;;;;19.70;85.60;;;;;;4913574;29;20332;-76
2023/10/15 13:46:01;;;;;;;;;;;19.80;85.40;;;;;;4912780;29;20302;-77
2023/10/15 13:48:27;;;;;;;;;;;19.60;84.60;;;;;;4913352;29;19912;-77
2023/10/15 13:50:52;;;;;;;;;;;19.30;84.30;;;;;;4913235;29;20003;-77
2023/10/15 13:53:18;;;;;;;;;;;19.10;84.00;;;;;;4913025;29;20404;-77
2023/10/15 13:55:43;;;;;;;;;;;18.80;83.60;;;;;;4912352;29;19936;-77
2023/10/15 13:58:09;;;;;;;;;;;18.70;83.20;;;;;;4927119;29;19927;-77
2023/10/15 14:00:37;;;;;;;;;;;18.50;83.00;;;;;;4913251;29;19958;-77
2023/10/15 14:03:03;;;;;;;;;;;18.30;82.70;;;;;;4913229;29;19915;-77
2023/10/15 14:05:32;;;;;;;;;;;18.10;82.30;;;;;;4913259;29;19918;-77
2023/10/15 14:07:59;;;;;;;;;;;17.80;82.40;;;;;;4896491;29;20018;-77
2023/10/15 14:10:24;;;;;;;;;;;17.60;82.20;;;;;;4912964;29;19918;-76
2023/10/15 14:12:50;;;;;;;;;;;17.40;82.10;;;;;;4912993;29;19963;-63
2023/10/15 14:15:16;;;;;;;;;;;17.10;81.80;;;;;;4911537;29;19919;-76
2023/10/15 14:17:43;;;;;;;;;;;16.80;82.20;;;;;;4912735;29;20287;-76
2023/10/15 14:20:09;;;;;;;;;;;16.50;82.50;;;;;;4913159;29;20450;-76
2023/10/15 14:22:36;;;;;;;;;;;16.50;82.80;;;;;;4912872;29;19998;-77
2023/10/15 14:25:01;;;;;;;;;;;16.60;82.50;;;;;;4912265;29;19915;-77
2023/10/15 14:27:27;;;;;;;;;;;16.50;82.10;;;;;;4913102;29;20014;-77
2023/10/15 14:29:53;;;;;;;;;;;16.40;82.00;;;;;;4913018;29;19926;-76
2023/10/15 14:32:18;;;;;;;;;;;16.50;81.80;;;;;;4912661;29;19919;-77
2023/10/15 14:34:44;;;;;;;;;;;16.50;81.60;;;;;;4912486;29;19926;-77
2023/10/15 14:37:10;;;;;;;;;;;16.50;81.20;;;;;;4926795;29;19925;-77
2023/10/15 14:39:36;;;;;;;;;;;16.40;81.50;;;;;;4912502;29;20371;-77
2023/10/15 14:42:02;;;;;;;;;;;16.40;81.70;;;;;;4926288;29;19949;-77